Terminal Aerodrome Forecast
Issued by NWS Jackson, KY

Home | Current Version | Previous Version | Text Only | Print | Product List | Glossary On
Versions: 1 2 3 4 5 6 7 8 9 10 11 12 13 14 15 16 17 18
000
FTUS43 KJKL 162300
TAFLOZ
TAF
KLOZ 162339Z 1700/1724 26007KT 6SM -DZ OVC020
     FM170300 26006KT 6SM -DZ OVC008
     FM171200 28005KT 6SM -DZ OVC020
     FM172000 28005KT P6SM BKN030
     FM172300 29004KT P6SM BKN060=

USA.gov is the U.S. government's official web portal to all federal, state and local government web resources and services.